Time;durP1;ratioP1;P1;durP2;ratioP2;P2;SDS_P1;SDS_P2;PMS_P1;PMS_P2;Temp;Humidity;BMP_temperature;BMP_pressure;BME280_temperature;BME280_humidity;BME280_pressure;Samples;Min_cycle;Max_cycle;Signal;HPM_P1;HPM_P2
2023/07/15 00:01:55;;;;;;;7.13;6.43;;;;;;;20.19;100.00;95606.22;5060560;28;20040;-81
2023/07/15 00:04:21;;;;;;;7.28;6.60;;;;;;;20.09;100.00;95611.16;5058184;28;20525;-78
2023/07/15 00:06:46;;;;;;;7.80;6.57;;;;;;;20.08;100.00;95614.78;5059051;28;20099;-79
2023/07/15 00:09:12;;;;;;;8.23;6.50;;;;;;;20.05;100.00;95628.38;5058169;28;20032;-79
2023/07/15 00:11:41;;;;;;;9.75;6.97;;;;;;;20.07;100.00;95644.72;5072624;28;20045;-83
2023/07/15 00:14:21;;;;;;;8.23;6.63;;;;;;;20.08;100.00;95642.91;5042021;28;20204;-80
2023/07/15 00:16:46;;;;;;;8.60;6.90;;;;;;;20.13;100.00;95643.09;5058361;28;20032;-80
2023/07/15 00:19:13;;;;;;;7.80;6.95;;;;;;;20.10;100.00;95623.25;5059015;28;20900;-80
2023/07/15 00:21:39;;;;;;;8.93;7.30;;;;;;;19.86;100.00;95622.22;5057665;28;20036;-80
2023/07/15 00:24:05;;;;;;;8.30;7.35;;;;;;;19.82;100.00;95633.34;5046435;28;20036;-79
2023/07/15 00:26:32;;;;;;;6.53;5.97;;;;;;;19.91;100.00;95634.72;5059756;28;20037;-79
2023/07/15 00:28:58;;;;;;;11.32;6.50;;;;;;;19.91;100.00;95632.91;5093909;28;20032;-80
2023/07/15 00:31:24;;;;;;;7.43;6.72;;;;;;;19.75;100.00;95629.94;5068638;28;20478;-81
2023/07/15 00:33:50;;;;;;;12.68;7.63;;;;;;;19.59;100.00;95654.09;5058407;28;20021;-78
2023/07/15 00:36:16;;;;;;;7.63;6.40;;;;;;;19.56;100.00;95683.41;5080782;28;20023;-78
2023/07/15 00:38:42;;;;;;;9.20;7.07;;;;;;;19.48;100.00;95686.28;5088360;28;20039;-78
2023/07/15 00:41:14;;;;;;;9.77;7.07;;;;;;;19.44;100.00;95689.34;5095833;28;20069;-79
2023/07/15 00:43:55;;;;;;;7.22;6.63;;;;;;;19.60;100.00;95695.16;5050482;28;20033;-80
2023/07/15 00:46:22;;;;;;;9.30;7.20;;;;;;;19.64;100.00;95676.13;5079742;28;20042;-80
2023/07/15 00:49:14;;;;;;;8.52;7.60;;;;;;;19.56;100.00;95657.13;5088539;28;20031;-80
2023/07/15 00:51:43;;;;;;;7.65;6.90;;;;;;;19.63;100.00;95655.28;5063086;28;20074;-78
2023/07/15 00:54:09;;;;;;;11.48;6.85;;;;;;;19.49;100.00;95656.38;5062569;28;20024;-79
2023/07/15 00:56:36;;;;;;;9.32;6.75;;;;;;;19.63;100.00;95664.00;5061658;28;20147;-78
2023/07/15 00:59:02;;;;;;;11.20;8.20;;;;;;;19.45;100.00;95654.16;5062508;28;20035;-78
2023/07/15 01:01:27;;;;;;;7.93;7.20;;;;;;;19.39;100.00;95673.34;5048683;28;20459;-78
2023/07/15 01:03:54;;;;;;;9.85;7.00;;;;;;;19.32;100.00;95677.84;5069347;28;20028;-78
2023/07/15 01:06:20;;;;;;;8.45;7.32;;;;;;;19.32;100.00;95701.47;5061959;28;20025;-78
2023/07/15 01:08:46;;;;;;;9.52;6.80;;;;;;;19.29;100.00;95703.72;5061815;28;20575;-77
2023/07/15 01:11:11;;;;;;;9.00;8.07;;;;;;;19.17;100.00;95716.66;5071699;28;20037;-79
2023/07/15 01:13:37;;;;;;;9.77;7.35;;;;;;;19.19;100.00;95735.66;5075418;28;20016;-80
2023/07/15 01:16:02;;;;;;;7.82;7.10;;;;;;;19.27;100.00;95743.31;5062347;28;20024;-80
2023/07/15 01:18:31;;;;;;;8.40;7.32;;;;;;;19.32;100.00;95704.09;5060993;28;20016;-79
2023/07/15 01:20:58;;;;;;;12.18;8.18;;;;;;;19.23;100.00;95718.44;5063473;28;20025;-78
2023/07/15 01:23:28;;;;;;;9.15;7.88;;;;;;;19.14;100.00;95742.50;5077043;28;20039;-79
2023/07/15 01:25:53;;;;;;;11.75;7.80;;;;;;;19.09;100.00;95760.72;5078117;28;20027;-76
2023/07/15 01:28:19;;;;;;;9.00;7.95;;;;;;;19.12;100.00;95755.84;5067617;28;20880;-79
2023/07/15 01:30:44;;;;;;;12.98;7.43;;;;;;;19.08;100.00;95759.91;5061378;28;20129;-80
2023/07/15 01:33:10;;;;;;;10.77;7.45;;;;;;;19.07;100.00;95774.03;5061963;28;20032;-78
2023/07/15 01:35:36;;;;;;;10.00;8.45;;;;;;;19.11;100.00;95772.63;5070204;28;20095;-79
2023/07/15 01:38:01;;;;;;;14.23;7.57;;;;;;;19.09;100.00;95777.28;5093590;28;20024;-79
2023/07/15 01:40:27;;;;;;;10.77;7.95;;;;;;;19.13;100.00;95775.88;5048244;28;20097;-80
2023/07/15 01:42:52;;;;;;;7.88;6.53;;;;;;;19.18;100.00;95764.72;5062596;28;20474;-80
2023/07/15 01:45:18;;;;;;;10.25;7.78;;;;;;;19.13;100.00;95749.59;5061769;28;20500;-79
2023/07/15 01:47:43;;;;;;;8.32;7.00;;;;;;;19.15;100.00;95763.34;5060006;28;20567;-80
2023/07/15 01:50:09;;;;;;;16.05;7.70;;;;;;;19.11;100.00;95775.25;5061606;28;20032;-80
2023/07/15 01:52:34;;;;;;;8.82;7.45;;;;;;;19.15;100.00;95794.84;5060042;28;20024;-79
2023/07/15 01:55:00;;;;;;;10.55;7.72;;;;;;;19.13;100.00;95786.38;5063192;28;20032;-79
2023/07/15 01:57:26;;;;;;;11.23;7.53;;;;;;;19.23;100.00;95783.34;5060523;28;20021;-78
2023/07/15 01:59:57;;;;;;;11.35;8.32;;;;;;;19.19;100.00;95792.63;5061484;28;20024;-80
2023/07/15 02:02:26;;;;;;;9.82;7.53;;;;;;;19.11;100.00;95800.69;5044619;28;20157;-79
2023/07/15 02:04:52;;;;;;;8.90;7.88;;;;;;;19.13;100.00;95798.69;5044132;28;20074;-79
2023/07/15 02:07:18;;;;;;;9.25;7.32;;;;;;;19.00;100.00;95806.56;5062644;28;20774;-78
2023/07/15 02:09:43;;;;;;;12.93;8.15;;;;;;;19.27;100.00;95811.59;5061152;28;20482;-80
2023/07/15 02:12:10;;;;;;;9.50;7.38;;;;;;;19.16;100.00;95775.47;5075705;28;20469;-84
2023/07/15 02:14:38;;;;;;;10.48;7.93;;;;;;;19.18;100.00;95768.19;5053258;28;20540;-83
2023/07/15 02:17:04;;;;;;;8.85;7.95;;;;;;;19.02;100.00;95773.84;5074534;28;20406;-83
2023/07/15 02:19:33;;;;;;;8.50;7.60;;;;;;;18.83;100.00;95795.66;5060503;28;20147;-83
2023/07/15 02:21:59;;;;;;;8.80;7.53;;;;;;;18.90;100.00;95815.66;5060086;28;20566;-84
2023/07/15 02:24:24;;;;;;;11.20;7.63;;;;;;;18.75;100.00;95837.84;5060785;28;20036;-81
2023/07/15 02:26:50;;;;;;;10.57;7.75;;;;;;;18.69;100.00;95854.38;5059774;28;20035;-79
2023/07/15 02:29:15;;;;;;;11.27;7.95;;;;;;;18.69;100.00;95880.63;5052454;28;20028;-83
2023/07/15 02:31:42;;;;;;;14.52;8.50;;;;;;;18.82;100.00;95862.28;5065428;28;20047;-83
2023/07/15 02:34:08;;;;;;;8.40;7.60;;;;;;;18.85;100.00;95852.19;5060877;28;20020;-83
2023/07/15 02:36:35;;;;;;;10.73;6.95;;;;;;;18.69;100.00;95854.38;5051971;28;20517;-83
2023/07/15 02:39:00;;;;;;;11.70;8.38;;;;;;;18.61;100.00;95872.94;5060492;28;20506;-79
2023/07/15 02:41:26;;;;;;;8.82;7.53;;;;;;;18.72;100.00;95890.75;5060564;28;20021;-79
2023/07/15 02:43:51;;;;;;;8.05;7.35;;;;;;;18.65;100.00;95889.91;5060951;28;20044;-80
2023/07/15 02:46:17;;;;;;;9.63;7.93;;;;;;;18.67;100.00;95893.94;5076888;28;20505;-77
2023/07/15 02:48:42;;;;;;;13.05;7.95;;;;;;;18.81;100.00;95889.56;5057018;28;20160;-79
2023/07/15 02:51:08;;;;;;;10.77;9.68;;;;;;;18.74;100.00;95868.53;5060551;28;20035;-80
2023/07/15 02:53:33;;;;;;;13.85;8.80;;;;;;;18.63;100.00;95870.91;5043485;28;20020;-81
2023/07/15 02:55:58;;;;;;;16.83;8.40;;;;;;;18.54;100.00;95891.28;5043163;28;20031;-79
2023/07/15 02:58:24;;;;;;;11.05;8.13;;;;;;;18.62;100.00;95914.72;5059870;28;20105;-76
2023/07/15 03:00:53;;;;;;;11.25;9.38;;;;;;;18.56;100.00;95918.13;5089771;28;20031;-79
2023/07/15 03:03:19;;;;;;;14.80;9.05;;;;;;;18.82;100.00;95914.78;5071818;28;20569;-80
2023/07/15 03:05:48;;;;;;;10.38;8.82;;;;;;;18.82;100.00;95891.16;5059236;28;20417;-80
2023/07/15 03:08:14;;;;;;;13.20;8.43;;;;;;;18.78;100.00;95867.09;5060070;28;20397;-78
2023/07/15 03:10:43;;;;;;;9.88;7.97;;;;;;;18.90;100.00;95859.47;5068063;28;20023;-77
2023/07/15 03:13:09;;;;;;;13.82;8.18;;;;;;;18.79;100.00;95853.00;5064347;28;20099;-78
2023/07/15 03:15:35;;;;;;;10.70;8.32;;;;;;;18.88;100.00;95856.22;5059499;28;20135;-80
2023/07/15 03:18:02;;;;;;;14.23;7.85;;;;;;;18.92;100.00;95834.63;5052388;28;20032;-81
2023/07/15 03:20:28;;;;;;;12.98;9.07;;;;;;;18.96;100.00;95853.44;5059703;28;20044;-80
2023/07/15 03:22:54;;;;;;;9.18;7.60;;;;;;;19.06;100.00;95839.91;5042153;28;20067;-79
2023/07/15 03:25:20;;;;;;;10.98;8.35;;;;;;;19.19;100.00;95821.53;5059833;28;20556;-80
2023/07/15 03:27:46;;;;;;;15.07;9.73;;;;;;;19.28;100.00;95801.91;5051533;28;20078;-80
2023/07/15 03:30:12;;;;;;;12.98;8.38;;;;;;;19.22;100.00;95771.19;5064731;28;20024;-79
2023/07/15 03:32:38;;;;;;;8.88;7.93;;;;;;;19.36;100.00;95770.97;5058100;28;20058;-79
2023/07/15 03:35:04;;;;;;;12.18;7.63;;;;;;;19.38;100.00;95740.06;5059150;28;20078;-79
2023/07/15 03:37:33;;;;;;;8.90;7.32;;;;;;;19.45;100.00;95709.34;5059078;28;20074;-80
2023/07/15 03:39:59;;;;;;;;;;;;;;;19.80;100.00;95648.56;5059290;28;20055;-79
2023/07/15 03:42:25;;;;;;;10.00;7.25;;;;;;;20.38;100.00;95513.19;5059209;28;20388;-79
2023/07/15 03:44:51;;;;;;;8.35;6.95;;;;;;;20.94;100.00;95372.56;5059400;28;20024;-79
2023/07/15 03:47:17;;;;;;;11.52;7.13;;;;;;;21.50;100.00;95283.31;5058649;28;20098;-79
2023/07/15 03:49:43;;;;;;;10.02;7.60;;;;;;;21.98;100.00;95232.94;5041853;28;20123;-79
2023/07/15 03:52:09;;;;;;;9.27;6.90;;;;;;;22.46;100.00;95170.97;5073161;28;20024;-80
2023/07/15 03:54:35;;;;;;;9.40;7.13;;;;;;;22.78;100.00;95147.47;5059448;28;20027;-80
2023/07/15 03:57:00;;;;;;;8.68;6.97;;;;;;;22.91;100.00;95112.78;5058486;28;20048;-80
2023/07/15 03:59:25;;;;;;;10.63;7.72;;;;;;;23.38;100.00;95079.56;5063182;28;20078;-80
2023/07/15 04:01:51;;;;;;;7.97;5.97;;;;;;;23.53;100.00;95074.50;5057449;28;20029;-80
2023/07/15 04:04:16;;;;;;;12.43;7.88;;;;;;;24.03;100.00;95044.28;5069024;28;20497;-80
2023/07/15 04:06:43;;;;;;;8.38;6.03;;;;;;;24.13;100.00;95052.34;5063622;28;20043;-80
2023/07/15 04:09:11;;;;;;;8.63;6.53;;;;;;;24.37;100.00;95034.25;5058875;28;20520;-80
2023/07/15 04:11:37;;;;;;;8.32;6.78;;;;;;;24.51;100.00;95033.56;5072276;28;20139;-80
2023/07/15 04:14:03;;;;;;;6.50;5.90;;;;;;;24.86;100.00;95027.69;5046710;28;20107;-80
2023/07/15 04:16:29;;;;;;;8.00;6.35;;;;;;;25.00;100.00;95006.81;5057776;28;20032;-80
2023/07/15 04:18:54;;;;;;;6.65;6.00;;;;;;;25.68;100.00;95011.03;5041592;28;20032;-80
2023/07/15 04:21:21;;;;;;;6.63;5.97;;;;;;;25.74;100.00;95012.63;5059417;28;20032;-80
2023/07/15 04:23:46;;;;;;;7.95;6.43;;;;;;;25.84;100.00;95002.03;5059414;28;20033;-80
2023/07/15 04:26:12;;;;;;;8.63;6.85;;;;;;;26.14;100.00;95009.19;5042351;28;20124;-80
2023/07/15 04:28:37;;;;;;;9.85;7.30;;;;;;;26.46;100.00;95006.28;5088534;28;20052;-80
2023/07/15 04:31:03;;;;;;;7.65;6.68;;;;;;;26.77;100.00;95015.78;5070962;28;20552;-80
2023/07/15 04:33:29;;;;;;;10.23;6.22;;;;;;;27.24;100.00;95013.53;5059732;28;20166;-80
2023/07/15 04:35:54;;;;;;;7.10;6.50;;;;;;;27.68;100.00;95026.88;5058386;28;20132;-79
2023/07/15 04:38:21;;;;;;;8.00;6.72;;;;;;;27.52;100.00;95030.72;5058333;28;20020;-79
2023/07/15 04:40:47;;;;;;;7.35;6.63;;;;;;;28.37;100.00;95031.22;5058367;28;20035;-80
2023/07/15 04:43:12;;;;;;;7.22;6.25;;;;;;;28.31;100.00;95039.53;5057796;28;20032;-80
2023/07/15 04:45:38;;;;;;;8.45;6.30;;;;;;;28.49;100.00;95041.50;5057203;28;20039;-81
2023/07/15 04:48:03;;;;;;;8.50;6.70;;;;;;;29.41;100.00;95040.31;5058327;28;20075;-81
2023/07/15 04:50:29;;;;;;;10.38;6.93;;;;;;;29.28;100.00;95041.03;5045718;28;20012;-80
2023/07/15 04:52:55;;;;;;;8.07;6.30;;;;;;;29.61;100.00;95042.72;5064897;28;20072;-78
2023/07/15 04:55:20;;;;;;;10.38;6.85;;;;;;;29.69;100.00;95035.94;5059637;28;20437;-81
2023/07/15 04:57:46;;;;;;;8.55;6.40;;;;;;;29.81;100.00;95033.63;5057190;28;20086;-80
2023/07/15 05:00:12;;;;;;;10.02;6.82;;;;;;;30.10;100.00;95028.97;5041196;28;20028;-78
2023/07/15 05:02:38;;;;;;;7.95;6.38;;;;;;;30.25;100.00;95030.59;5057489;28;20028;-81
2023/07/15 05:05:06;;;;;;;7.00;6.40;;;;;;;30.92;99.44;95031.84;5041679;28;20028;-81
2023/07/15 05:07:33;;;;;;;12.65;7.00;;;;;;;30.45;100.00;95032.16;5040615;28;20032;-78
2023/07/15 05:09:59;;;;;;;6.53;5.95;;;;;;;31.21;98.55;95036.97;5052906;28;20029;-80
2023/07/15 05:12:28;;;;;;;7.55;6.57;;;;;;;31.64;93.69;95037.44;5040681;28;20592;-79
2023/07/15 05:14:54;;;;;;;8.60;6.82;;;;;;;31.49;93.75;95030.50;5058227;28;20090;-79
2023/07/15 05:17:20;;;;;;;8.00;6.53;;;;;;;31.76;91.39;95038.50;5058524;28;20617;-79
2023/07/15 05:19:45;;;;;;;7.73;6.13;;;;;;;32.26;89.40;95038.47;5040935;28;20024;-79
2023/07/15 05:22:10;;;;;;;11.67;6.47;;;;;;;32.72;85.72;95024.75;5066211;28;20542;-80
2023/07/15 05:24:36;;;;;;;10.30;6.07;;;;;;;33.32;81.22;95036.56;5071560;28;20926;-80
2023/07/15 05:27:01;;;;;;;6.93;6.20;;;;;;;32.92;80.60;95037.63;5061810;28;20033;-80
2023/07/15 05:29:27;;;;;;;6.77;6.07;;;;;;;33.99;74.93;95040.81;5074431;28;20047;-80
2023/07/15 05:31:52;;;;;;;7.20;5.70;;;;;;;33.72;76.75;95040.00;5063128;28;20036;-81
2023/07/15 05:34:19;;;;;;;10.43;5.80;;;;;;;34.05;75.59;95042.22;5063191;28;20047;-80
2023/07/15 05:36:44;;;;;;;;;;;;;;;34.63;71.09;95037.19;5061517;28;20029;-79
2023/07/15 05:39:11;;;;;;;6.32;5.72;;;;;;;35.29;69.44;95043.00;5062270;28;19920;-79
2023/07/15 05:41:36;;;;;;;5.90;5.40;;;;;;;35.92;66.20;95042.81;5060543;28;20017;-80
2023/07/15 05:44:02;;;;;;;9.87;5.73;;;;;;;36.06;61.97;95039.88;5063754;28;20039;-80
2023/07/15 05:46:28;;;;;;;7.20;5.47;;;;;;;37.05;58.59;95042.63;5082155;28;20107;-80
2023/07/15 05:48:53;;;;;;;8.13;6.17;;;;;;;37.24;57.22;95040.19;5060723;28;20043;-79
2023/07/15 05:51:19;;;;;;;6.27;5.67;;;;;;;38.38;53.18;95042.53;5060653;28;20031;-79
2023/07/15 05:53:45;;;;;;;7.27;6.20;;;;;;;38.44;51.95;95043.88;5043401;28;20062;-79
2023/07/15 05:56:10;;;;;;;5.90;5.32;;;;;;;37.94;51.95;95042.44;5059588;28;20519;-80
2023/07/15 05:58:36;;;;;;;8.57;5.23;;;;;;;38.47;50.07;95048.59;5059292;28;20063;-77
2023/07/15 06:01:01;;;;;;;6.07;5.20;;;;;;;39.20;50.26;95049.03;5060522;28;20078;-76
2023/07/15 06:03:26;;;;;;;6.67;5.93;;;;;;;36.76;54.10;95041.66;5058637;28;20090;-78
2023/07/15 06:05:52;;;;;;;5.30;4.80;;;;;;;38.51;49.25;95046.78;5060569;28;20303;-79
2023/07/15 06:08:18;;;;;;;7.70;4.93;;;;;;;38.99;47.13;95046.56;5059972;28;20033;-76
2023/07/15 06:10:43;;;;;;;5.77;4.90;;;;;;;38.87;47.82;95037.72;5071134;28;20027;-79
2023/07/15 06:13:10;;;;;;;8.87;4.80;;;;;;;39.51;45.85;95043.59;5061173;28;20116;-79
2023/07/15 06:15:36;;;;;;;12.30;4.75;;;;;;;39.52;46.80;95044.38;5058769;28;20024;-79
2023/07/15 06:18:02;;;;;;;7.75;5.07;;;;;;;40.79;44.62;95036.25;5059302;28;20059;-80
2023/07/15 06:20:27;;;;;;;7.13;5.32;;;;;;;38.03;49.39;95042.28;5094371;28;20064;-79
2023/07/15 06:22:53;;;;;;;6.30;5.30;;;;;;;37.95;50.45;95035.09;5068162;28;20033;-78
2023/07/15 06:25:18;;;;;;;7.70;5.53;;;;;;;37.38;51.66;95037.91;5058200;28;20028;-78
2023/07/15 06:27:44;;;;;;;5.85;5.28;;;;;;;38.96;50.16;95033.69;5060815;28;20465;-79
2023/07/15 06:30:10;;;;;;;5.60;5.10;;;;;;;39.77;46.34;95029.47;5042255;28;20552;-78
2023/07/15 06:32:36;;;;;;;6.55;5.82;;;;;;;39.56;45.08;95036.34;5045768;28;20067;-79
2023/07/15 06:35:02;;;;;;;6.72;5.47;;;;;;;36.07;55.44;95025.25;5065864;28;20025;-79
2023/07/15 06:37:27;;;;;;;9.45;5.35;;;;;;;35.08;62.64;95021.34;5071692;28;20024;-79
2023/07/15 06:39:53;;;;;;;5.50;4.70;;;;;;;34.89;68.70;95023.66;5051400;28;20487;-80
2023/07/15 06:42:18;;;;;;;12.40;5.23;;;;;;;34.49;65.40;95025.75;5059348;28;20107;-79
2023/07/15 06:44:44;;;;;;;6.70;4.83;;;;;;;33.67;67.05;95026.72;5058766;28;20033;-79
2023/07/15 06:47:09;;;;;;;5.17;4.60;;;;;;;35.14;62.65;95027.38;5058234;28;20054;-79
2023/07/15 06:49:35;;;;;;;5.30;4.73;;;;;;;38.14;53.33;95027.16;5060493;28;20032;-78
2023/07/15 06:52:00;;;;;;;6.43;4.97;;;;;;;38.15;48.91;95026.00;5060008;28;20047;-79
2023/07/15 06:54:29;;;;;;;6.95;5.18;;;;;;;39.83;47.43;95022.63;5059442;28;20413;-77
2023/07/15 06:56:54;;;;;;;8.82;4.43;;;;;;;38.93;47.34;95017.34;5059090;28;20485;-78
2023/07/15 06:59:20;;;;;;;5.32;4.82;;;;;;;39.40;45.68;95026.28;5058025;28;20081;-78
2023/07/15 07:01:45;;;;;;;9.05;5.82;;;;;;;36.65;53.70;95020.78;5058716;28;20139;-76
2023/07/15 07:04:11;;;;;;;7.57;5.10;;;;;;;35.44;60.73;95020.88;5058901;28;20041;-79
2023/07/15 07:06:36;;;;;;;7.38;5.47;;;;;;;33.30;67.06;95027.22;5045743;28;20031;-79
2023/07/15 07:09:01;;;;;;;9.70;5.57;;;;;;;32.59;66.41;95017.59;5057894;28;20403;-83
2023/07/15 07:11:27;;;;;;;5.78;4.95;;;;;;;33.07;66.12;95023.03;5073781;28;20044;-79
2023/07/15 07:13:52;;;;;;;5.43;4.50;;;;;;;33.21;68.03;95029.09;5059791;28;20033;-79
2023/07/15 07:16:18;;;;;;;7.50;4.45;;;;;;;33.88;66.03;95019.59;5057664;28;20812;-78
2023/07/15 07:18:44;;;;;;;5.35;3.28;;;;;;;33.07;67.94;95025.69;5058486;28;20025;-77
2023/07/15 07:21:10;;;;;;;7.80;4.70;;;;;;;31.62;73.07;95026.25;5057594;28;20369;-77
2023/07/15 07:23:36;;;;;;;11.80;5.35;;;;;;;32.93;69.36;95023.13;5057970;28;20028;-77
2023/07/15 07:26:01;;;;;;;6.00;4.38;;;;;;;33.66;68.44;95025.13;5057540;28;20040;-78
2023/07/15 07:28:44;;;;;;;7.57;4.07;;;;;;;33.82;71.73;95018.19;5059624;28;20762;-77
2023/07/15 07:31:10;;;;;;;5.72;3.95;;;;;;;33.00;63.51;95025.34;5041790;28;20029;-77
2023/07/15 07:33:36;;;;;;;13.40;4.05;;;;;;;33.27;66.31;95030.53;5057595;28;20039;-77
2023/07/15 07:36:03;;;;;;;4.20;3.80;;;;;;;32.89;69.74;95020.25;5041413;28;20406;-78
2023/07/15 07:38:29;;;;;;;6.78;3.75;;;;;;;32.40;67.99;95020.41;5057158;28;20463;-77
2023/07/15 07:40:54;;;;;;;6.65;4.40;;;;;;;32.95;70.20;95028.16;5092457;28;20020;-77
2023/07/15 07:43:20;;;;;;;3.78;3.42;;;;;;;32.94;71.88;95023.91;5066782;28;20040;-77
2023/07/15 07:45:45;;;;;;;10.85;4.05;;;;;;;32.38;73.36;95011.88;5056982;28;20040;-77
2023/07/15 07:48:10;;;;;;;5.78;3.92;;;;;;;32.25;74.13;95018.09;5058962;28;20040;-80
2023/07/15 07:50:36;;;;;;;8.88;4.38;;;;;;;33.06;73.03;95026.78;5057533;28;20705;-77
2023/07/15 07:53:01;;;;;;;16.75;4.75;;;;;;;33.04;69.00;95019.03;5058042;28;20541;-77
2023/07/15 07:55:27;;;;;;;6.40;3.85;;;;;;;32.33;73.88;95017.41;5057037;28;20484;-77
2023/07/15 07:57:52;;;;;;;4.95;4.03;;;;;;;30.91;73.47;95008.88;5069056;28;20035;-78
2023/07/15 08:00:18;;;;;;;5.05;4.07;;;;;;;31.12;80.56;95020.00;5085684;28;20028;-77
2023/07/15 08:02:43;;;;;;;9.88;3.83;;;;;;;32.08;73.08;95021.44;5060573;28;20875;-76
2023/07/15 08:05:09;;;;;;;7.00;4.15;;;;;;;31.04;77.46;95010.00;5068994;28;20086;-77
2023/07/15 08:07:34;;;;;;;7.70;4.90;;;;;;;31.78;75.84;95025.63;5054278;28;20553;-77
2023/07/15 08:10:00;;;;;;;5.55;4.10;;;;;;;32.22;78.11;95018.72;5045456;28;20103;-77
2023/07/15 08:12:25;;;;;;;4.72;4.32;;;;;;;32.47;71.89;95028.81;5052530;28;20507;-78
2023/07/15 08:14:52;;;;;;;6.82;4.47;;;;;;;32.04;72.45;95020.50;5058864;28;20048;-78
2023/07/15 08:17:18;;;;;;;9.15;4.45;;;;;;;31.80;74.80;95017.25;5045284;28;20036;-83
2023/07/15 08:19:44;;;;;;;5.03;4.05;;;;;;;31.73;75.49;95022.22;5059929;28;20512;-79
2023/07/15 08:22:09;;;;;;;6.53;4.18;;;;;;;32.26;74.93;95033.13;5041164;28;20078;-78
2023/07/15 08:24:35;;;;;;;6.38;4.03;;;;;;;31.94;75.30;95025.25;5041941;28;20115;-77
2023/07/15 08:27:00;;;;;;;8.52;4.25;;;;;;;31.51;79.21;95030.22;5058730;28;20031;-78
2023/07/15 08:29:26;;;;;;;7.47;4.13;;;;;;;32.32;72.23;95019.28;5058434;28;20032;-78
2023/07/15 08:31:51;;;;;;;8.98;3.90;;;;;;;32.64;77.00;95030.84;5059000;28;20036;-78
2023/07/15 08:34:17;;;;;;;6.70;4.15;;;;;;;31.20;74.99;95019.31;5039679;28;20535;-79
2023/07/15 08:36:42;;;;;;;6.57;3.90;;;;;;;30.70;82.03;95027.16;5040156;28;20580;-79
2023/07/15 08:39:07;;;;;;;17.70;4.88;;;;;;;31.00;80.82;95022.38;5056187;28;20024;-80
2023/07/15 08:41:33;;;;;;;6.65;4.55;;;;;;;31.25;78.65;95025.34;5055807;28;20028;-79
2023/07/15 08:43:58;;;;;;;7.20;4.70;;;;;;;31.67;84.64;95012.72;5049277;28;20037;-80
2023/07/15 08:46:26;;;;;;;8.85;4.43;;;;;;;32.25;75.27;95023.47;5057785;28;20032;-78
2023/07/15 08:48:53;;;;;;;5.50;4.15;;;;;;;30.65;78.17;95018.44;5058129;28;20036;-77
2023/07/15 08:51:21;;;;;;;5.38;4.10;;;;;;;32.67;78.80;95020.31;5039954;28;20056;-78
2023/07/15 08:53:47;;;;;;;5.22;4.53;;;;;;;32.08;77.26;95032.19;5051470;28;20028;-82
2023/07/15 08:56:14;;;;;;;8.18;5.03;;;;;;;31.50;77.97;95029.41;5078617;28;20089;-78
2023/07/15 08:58:40;;;;;;;4.97;4.57;;;;;;;31.60;79.16;95018.50;5094373;28;20024;-81
2023/07/15 09:01:05;;;;;;;6.70;4.15;;;;;;;32.02;77.64;95019.16;5065589;28;20539;-79
2023/07/15 09:03:30;;;;;;;5.70;5.10;;;;;;;32.44;77.85;95009.88;5062556;28;20162;-79
2023/07/15 09:05:56;;;;;;;6.30;4.43;;;;;;;32.61;81.19;95020.75;5060679;28;20028;-79
2023/07/15 09:08:24;;;;;;;6.82;4.72;;;;;;;31.16;80.21;95029.81;5065191;28;20069;-82
2023/07/15 09:10:53;;;;;;;;;;;;;;;32.09;75.54;95030.28;5061192;28;20035;-79
2023/07/15 09:13:36;;;;;;;7.47;4.53;;;;;;;31.76;79.16;95010.91;5066520;28;20407;-78
2023/07/15 09:16:03;;;;;;;8.43;4.85;;;;;;;31.58;77.86;95015.31;5089397;28;20076;-79
2023/07/15 09:18:29;;;;;;;5.93;4.70;;;;;;;32.26;78.94;95019.69;5079128;28;20024;-79
2023/07/15 09:21:09;;;;;;;7.25;5.10;;;;;;;31.62;77.96;95013.63;5051104;28;20040;-79
2023/07/15 09:23:37;;;;;;;6.00;5.15;;;;;;;31.19;81.48;95012.38;5071157;28;20111;-79
2023/07/15 09:26:05;;;;;;;7.20;4.80;;;;;;;31.31;84.42;95018.81;5070647;28;20840;-80
2023/07/15 09:28:30;;;;;;;5.30;4.57;;;;;;;31.11;87.32;95013.06;5065733;28;20029;-79
2023/07/15 09:30:57;;;;;;;12.85;5.63;;;;;;;31.52;82.69;95018.41;5068163;28;20463;-79
2023/07/15 09:33:42;;;;;;;8.15;5.80;;;;;;;31.82;83.98;95004.38;5067485;28;20417;-86
2023/07/15 09:36:08;;;;;;;7.90;5.50;;;;;;;32.14;82.76;94998.00;5065956;28;20024;-82
2023/07/15 09:38:37;;;;;;;8.02;5.43;;;;;;;32.37;83.17;95007.63;5074757;28;20046;-79
2023/07/15 09:41:04;;;;;;;7.57;6.07;;;;;;;30.72;82.25;95005.50;5069975;28;20028;-84
2023/07/15 09:43:51;;;;;;;6.05;5.13;;;;;;;30.87;86.42;95004.41;5044254;28;20424;-81
2023/07/15 09:46:18;;;;;;;11.88;5.13;;;;;;;31.18;88.50;95008.09;5051466;28;20036;-81
2023/07/15 09:48:44;;;;;;;8.27;4.83;;;;;;;31.28;87.85;95005.22;5065219;28;20444;-79
2023/07/15 09:51:12;;;;;;;8.85;5.78;;;;;;;31.33;83.18;94997.09;5066489;28;20044;-80
2023/07/15 09:53:40;;;;;;;9.80;6.13;;;;;;;31.07;84.58;94998.69;5068534;28;20111;-78
2023/07/15 09:56:06;;;;;;;;;;;;;;;31.25;85.97;94998.56;5054838;28;20024;-79
2023/07/15 09:58:32;;;;;;;7.03;5.57;;;;;;;30.48;87.95;94992.25;5071645;28;20025;-78
2023/07/15 10:01:23;;;;;;;7.97;5.43;;;;;;;31.16;89.16;94991.53;5061130;28;20027;-79
2023/07/15 10:04:22;;;;;;;13.95;4.88;;;;;;;30.78;89.69;94993.59;5069596;28;20040;-81
2023/07/15 10:06:47;;;;;;;10.02;5.63;;;;;;;31.20;87.50;94987.19;5072314;28;20036;-82
2023/07/15 10:09:14;;;;;;;6.80;6.00;;;;;;;30.97;87.46;94982.81;5065239;28;21309;-80
2023/07/15 10:11:40;;;;;;;6.32;5.82;;;;;;;31.03;82.39;94985.09;5050474;28;20051;-82
2023/07/15 10:14:06;;;;;;;6.35;5.75;;;;;;;32.18;81.09;94983.66;5057040;28;20109;-82
2023/07/15 10:16:34;;;;;;;6.22;5.13;;;;;;;32.02;80.98;94970.91;5061919;28;20043;-79
2023/07/15 10:19:01;;;;;;;12.63;6.07;;;;;;;31.64;86.97;94975.81;5067781;28;20073;-80
2023/07/15 10:21:27;;;;;;;8.98;5.88;;;;;;;31.52;83.94;94959.47;5043830;28;20016;-82
2023/07/15 10:24:07;;;;;;;6.10;5.50;;;;;;;31.46;85.75;94974.06;5060674;28;20067;-78
2023/07/15 10:26:33;;;;;;;7.68;5.72;;;;;;;31.68;80.82;94984.84;5049479;28;20028;-80
2023/07/15 10:28:58;;;;;;;9.35;5.78;;;;;;;30.65;89.51;94984.47;5073443;28;20035;-79
2023/07/15 10:31:24;;;;;;;10.05;6.05;;;;;;;30.98;88.88;94984.41;5067319;28;20870;-81
2023/07/15 10:34:03;;;;;;;8.15;5.78;;;;;;;31.12;90.63;94991.34;5062353;28;20028;-78
2023/07/15 10:36:45;;;;;;;7.65;5.93;;;;;;;31.52;85.88;94994.31;5066609;28;20562;-77
2023/07/15 10:39:20;;;;;;;8.52;6.10;;;;;;;31.08;89.05;94994.94;5064880;28;20115;-77
2023/07/15 10:41:47;;;;;;;9.55;6.78;;;;;;;31.49;83.98;94984.16;5051725;28;20039;-78
2023/07/15 10:44:23;;;;;;;9.82;6.20;;;;;;;31.82;87.97;94983.69;5063087;28;20177;-77
2023/07/15 10:47:04;;;;;;;8.82;6.05;;;;;;;31.37;87.61;94981.22;5055574;28;20028;-82
2023/07/15 10:49:30;;;;;;;8.65;5.95;;;;;;;31.33;85.37;94970.31;5042133;28;20052;-83
2023/07/15 10:51:57;;;;;;;7.88;6.47;;;;;;;30.87;86.90;94973.09;5059019;28;20028;-80
2023/07/15 10:54:23;;;;;;;6.97;6.38;;;;;;;31.42;86.99;94973.06;5066591;28;20592;-76
2023/07/15 10:56:49;;;;;;;9.07;6.45;;;;;;;31.58;87.68;94966.31;5068473;28;20068;-77
2023/07/15 10:59:15;;;;;;;6.85;6.15;;;;;;;31.76;86.51;94973.38;5069033;28;20067;-78
2023/07/15 11:01:42;;;;;;;6.43;5.45;;;;;;;31.86;83.49;94971.28;5066545;28;20069;-77
2023/07/15 11:04:08;;;;;;;7.05;6.38;;;;;;;32.15;82.06;94965.50;5059523;28;20130;-77
2023/07/15 11:06:34;;;;;;;8.20;6.60;;;;;;;32.47;86.44;94958.28;5067151;28;20143;-76
2023/07/15 11:09:13;;;;;;;10.77;5.95;;;;;;;32.49;81.75;94966.81;5060399;28;20440;-77
2023/07/15 11:11:38;;;;;;;8.65;5.90;;;;;;;31.31;82.47;94959.88;5073123;28;20076;-82
2023/07/15 11:14:04;;;;;;;10.88;6.57;;;;;;;31.57;84.48;94959.34;5059696;28;20042;-77
2023/07/15 11:16:29;;;;;;;10.35;6.60;;;;;;;31.47;85.48;94962.25;5061138;28;20446;-78
2023/07/15 11:18:54;;;;;;;6.22;5.60;;;;;;;31.45;84.65;94956.38;5054325;28;20032;-77
2023/07/15 11:21:20;;;;;;;7.53;6.80;;;;;;;31.37;85.38;94957.09;5067139;28;20017;-78
2023/07/15 11:23:45;;;;;;;9.27;5.95;;;;;;;31.78;83.79;94965.84;5072914;28;20086;-78
2023/07/15 11:26:12;;;;;;;8.57;5.50;;;;;;;31.56;85.49;94960.47;5060962;28;20536;-77
2023/07/15 11:28:50;;;;;;;8.57;5.93;;;;;;;31.77;82.80;94950.84;5068748;28;20029;-78